sensor_id;sensor_type;location;lat;lon;timestamp;P1;durP1;ratioP1;P2;durP2;ratioP2
78895;SDS011;68284;59.124;37.910;2023-06-26T00:00:57;18.00;;;11.40;;
78895;SDS011;68284;59.124;37.910;2023-06-26T00:05:49;22.08;;;11.60;;
78895;SDS011;68284;59.124;37.910;2023-06-26T00:08:16;17.73;;;10.98;;
78895;SDS011;68284;59.124;37.910;2023-06-26T00:10:42;18.38;;;11.02;;
78895;SDS011;68284;59.124;37.910;2023-06-26T00:15:38;18.88;;;10.60;;
78895;SDS011;68284;59.124;37.910;2023-06-26T00:18:05;18.13;;;10.93;;
78895;SDS011;68284;59.124;37.910;2023-06-26T00:22:59;15.90;;;9.80;;
78895;SDS011;68284;59.124;37.910;2023-06-26T00:25:26;16.13;;;9.25;;
78895;SDS011;68284;59.124;37.910;2023-06-26T00:30:18;16.88;;;10.38;;
78895;SDS011;68284;59.124;37.910;2023-06-26T00:35:10;12.88;;;8.73;;
78895;SDS011;68284;59.124;37.910;2023-06-26T00:40:03;14.13;;;8.38;;
78895;SDS011;68284;59.124;37.910;2023-06-26T00:42:32;13.75;;;9.82;;
78895;SDS011;68284;59.124;37.910;2023-06-26T00:47:24;12.68;;;9.48;;
78895;SDS011;68284;59.124;37.910;2023-06-26T00:49:51;14.30;;;9.35;;
78895;SDS011;68284;59.124;37.910;2023-06-26T00:52:17;12.05;;;8.93;;
78895;SDS011;68284;59.124;37.910;2023-06-26T00:54:44;13.52;;;9.35;;
78895;SDS011;68284;59.124;37.910;2023-06-26T00:59:36;14.07;;;9.48;;
78895;SDS011;68284;59.124;37.910;2023-06-26T01:02:03;14.70;;;9.43;;
78895;SDS011;68284;59.124;37.910;2023-06-26T01:04:31;12.65;;;9.05;;
78895;SDS011;68284;59.124;37.910;2023-06-26T01:06:59;15.70;;;8.68;;
78895;SDS011;68284;59.124;37.910;2023-06-26T01:09:25;12.38;;;8.77;;
78895;SDS011;68284;59.124;37.910;2023-06-26T01:11:52;12.73;;;8.90;;
78895;SDS011;68284;59.124;37.910;2023-06-26T01:16:44;14.57;;;8.73;;
78895;SDS011;68284;59.124;37.910;2023-06-26T01:19:18;12.13;;;8.63;;
78895;SDS011;68284;59.124;37.910;2023-06-26T01:21:51;13.20;;;8.25;;
78895;SDS011;68284;59.124;37.910;2023-06-26T01:24:24;13.23;;;8.30;;
78895;SDS011;68284;59.124;37.910;2023-06-26T01:26:54;16.00;;;9.52;;
78895;SDS011;68284;59.124;37.910;2023-06-26T01:29:21;11.18;;;8.55;;
78895;SDS011;68284;59.124;37.910;2023-06-26T01:31:49;12.45;;;8.55;;
78895;SDS011;68284;59.124;37.910;2023-06-26T01:34:16;12.25;;;8.65;;
78895;SDS011;68284;59.124;37.910;2023-06-26T01:36:44;15.30;;;10.98;;
78895;SDS011;68284;59.124;37.910;2023-06-26T01:39:14;15.30;;;10.57;;
78895;SDS011;68284;59.124;37.910;2023-06-26T01:41:43;15.43;;;9.07;;
78895;SDS011;68284;59.124;37.910;2023-06-26T01:47:04;15.45;;;10.00;;
78895;SDS011;68284;59.124;37.910;2023-06-26T01:57:26;21.48;;;11.30;;
78895;SDS011;68284;59.124;37.910;2023-06-26T01:59:54;20.33;;;11.65;;
78895;SDS011;68284;59.124;37.910;2023-06-26T02:02:25;18.70;;;10.80;;
78895;SDS011;68284;59.124;37.910;2023-06-26T02:04:51;14.52;;;10.15;;
78895;SDS011;68284;59.124;37.910;2023-06-26T02:07:18;16.48;;;11.20;;
78895;SDS011;68284;59.124;37.910;2023-06-26T02:09:44;21.58;;;11.93;;
78895;SDS011;68284;59.124;37.910;2023-06-26T02:12:10;26.02;;;13.15;;
78895;SDS011;68284;59.124;37.910;2023-06-26T02:14:37;18.40;;;14.52;;
78895;SDS011;68284;59.124;37.910;2023-06-26T02:17:03;21.02;;;15.40;;
78895;SDS011;68284;59.124;37.910;2023-06-26T02:19:30;23.63;;;16.38;;
78895;SDS011;68284;59.124;37.910;2023-06-26T02:21:57;27.08;;;15.50;;
78895;SDS011;68284;59.124;37.910;2023-06-26T02:26:50;21.15;;;13.98;;
78895;SDS011;68284;59.124;37.910;2023-06-26T02:29:16;23.75;;;13.23;;
78895;SDS011;68284;59.124;37.910;2023-06-26T02:31:42;21.15;;;13.88;;
78895;SDS011;68284;59.124;37.910;2023-06-26T02:34:09;19.23;;;13.10;;
78895;SDS011;68284;59.124;37.910;2023-06-26T02:36:35;23.45;;;12.45;;
78895;SDS011;68284;59.124;37.910;2023-06-26T02:39:04;18.13;;;12.10;;
78895;SDS011;68284;59.124;37.910;2023-06-26T02:41:31;17.40;;;12.25;;
78895;SDS011;68284;59.124;37.910;2023-06-26T02:43:57;19.35;;;12.18;;
78895;SDS011;68284;59.124;37.910;2023-06-26T02:46:25;18.67;;;11.43;;
78895;SDS011;68284;59.124;37.910;2023-06-26T02:48:51;16.40;;;10.38;;
78895;SDS011;68284;59.124;37.910;2023-06-26T02:51:18;14.45;;;10.23;;
78895;SDS011;68284;59.124;37.910;2023-06-26T02:53:45;16.00;;;9.73;;
78895;SDS011;68284;59.124;37.910;2023-06-26T02:58:37;14.70;;;10.20;;
78895;SDS011;68284;59.124;37.910;2023-06-26T03:01:03;15.15;;;9.05;;
78895;SDS011;68284;59.124;37.910;2023-06-26T03:03:29;14.85;;;8.82;;
78895;SDS011;68284;59.124;37.910;2023-06-26T03:05:56;13.88;;;9.63;;
78895;SDS011;68284;59.124;37.910;2023-06-26T03:08:24;16.85;;;9.82;;
78895;SDS011;68284;59.124;37.910;2023-06-26T03:10:51;16.45;;;10.70;;
78895;SDS011;68284;59.124;37.910;2023-06-26T03:13:17;15.60;;;9.10;;
78895;SDS011;68284;59.124;37.910;2023-06-26T03:15:44;13.23;;;8.63;;
78895;SDS011;68284;59.124;37.910;2023-06-26T03:18:10;16.00;;;10.05;;
78895;SDS011;68284;59.124;37.910;2023-06-26T03:20:36;13.73;;;9.63;;
78895;SDS011;68284;59.124;37.910;2023-06-26T03:23:02;15.00;;;9.05;;
78895;SDS011;68284;59.124;37.910;2023-06-26T03:25:28;15.57;;;9.93;;
78895;SDS011;68284;59.124;37.910;2023-06-26T03:28:09;13.52;;;9.70;;
78895;SDS011;68284;59.124;37.910;2023-06-26T03:30:35;14.18;;;9.57;;
78895;SDS011;68284;59.124;37.910;2023-06-26T03:33:02;12.77;;;9.38;;
78895;SDS011;68284;59.124;37.910;2023-06-26T03:35:28;15.10;;;9.50;;
78895;SDS011;68284;59.124;37.910;2023-06-26T03:37:54;13.23;;;9.50;;
78895;SDS011;68284;59.124;37.910;2023-06-26T03:40:21;20.25;;;10.07;;
78895;SDS011;68284;59.124;37.910;2023-06-26T03:42:47;15.07;;;9.30;;
78895;SDS011;68284;59.124;37.910;2023-06-26T03:45:13;14.18;;;9.80;;
78895;SDS011;68284;59.124;37.910;2023-06-26T03:47:41;12.60;;;9.52;;
78895;SDS011;68284;59.124;37.910;2023-06-26T03:50:08;13.70;;;9.88;;
78895;SDS011;68284;59.124;37.910;2023-06-26T03:52:34;15.77;;;10.63;;
78895;SDS011;68284;59.124;37.910;2023-06-26T03:55:00;15.30;;;11.13;;
78895;SDS011;68284;59.124;37.910;2023-06-26T03:57:27;15.38;;;10.13;;
78895;SDS011;68284;59.124;37.910;2023-06-26T03:59:53;17.45;;;11.02;;
78895;SDS011;68284;59.124;37.910;2023-06-26T04:02:21;16.48;;;10.15;;
78895;SDS011;68284;59.124;37.910;2023-06-26T04:04:48;20.10;;;11.60;;
78895;SDS011;68284;59.124;37.910;2023-06-26T04:07:15;16.73;;;13.15;;
78895;SDS011;68284;59.124;37.910;2023-06-26T04:09:41;18.70;;;12.23;;
78895;SDS011;68284;59.124;37.910;2023-06-26T04:12:08;19.73;;;11.80;;
78895;SDS011;68284;59.124;37.910;2023-06-26T04:14:34;21.05;;;13.93;;
78895;SDS011;68284;59.124;37.910;2023-06-26T04:17:00;16.63;;;11.25;;
78895;SDS011;68284;59.124;37.910;2023-06-26T04:19:29;16.30;;;11.80;;
78895;SDS011;68284;59.124;37.910;2023-06-26T04:21:56;13.70;;;10.02;;
78895;SDS011;68284;59.124;37.910;2023-06-26T04:24:22;14.40;;;9.45;;
78895;SDS011;68284;59.124;37.910;2023-06-26T04:26:48;14.48;;;9.52;;
78895;SDS011;68284;59.124;37.910;2023-06-26T04:29:15;15.38;;;8.80;;
78895;SDS011;68284;59.124;37.910;2023-06-26T04:31:41;12.98;;;8.52;;
78895;SDS011;68284;59.124;37.910;2023-06-26T04:34:13;14.52;;;9.18;;
78895;SDS011;68284;59.124;37.910;2023-06-26T04:36:39;12.13;;;8.05;;
78895;SDS011;68284;59.124;37.910;2023-06-26T04:39:05;12.98;;;9.25;;
78895;SDS011;68284;59.124;37.910;2023-06-26T04:41:32;12.23;;;8.73;;
78895;SDS011;68284;59.124;37.910;2023-06-26T04:43:58;15.52;;;9.35;;
78895;SDS011;68284;59.124;37.910;2023-06-26T04:46:24;14.77;;;8.85;;
78895;SDS011;68284;59.124;37.910;2023-06-26T04:48:50;14.55;;;8.48;;
78895;SDS011;68284;59.124;37.910;2023-06-26T04:51:16;12.13;;;7.80;;
78895;SDS011;68284;59.124;37.910;2023-06-26T04:53:46;10.40;;;7.28;;
78895;SDS011;68284;59.124;37.910;2023-06-26T04:56:12;8.75;;;6.22;;
78895;SDS011;68284;59.124;37.910;2023-06-26T04:58:39;12.68;;;6.47;;
78895;SDS011;68284;59.124;37.910;2023-06-26T05:01:05;11.95;;;6.90;;
78895;SDS011;68284;59.124;37.910;2023-06-26T05:03:32;9.88;;;6.85;;
78895;SDS011;68284;59.124;37.910;2023-06-26T05:05:58;12.68;;;6.25;;
78895;SDS011;68284;59.124;37.910;2023-06-26T05:08:24;9.68;;;6.25;;
78895;SDS011;68284;59.124;37.910;2023-06-26T05:10:54;9.75;;;6.97;;
78895;SDS011;68284;59.124;37.910;2023-06-26T05:13:24;11.73;;;6.53;;
78895;SDS011;68284;59.124;37.910;2023-06-26T05:15:51;9.68;;;6.05;;
78895;SDS011;68284;59.124;37.910;2023-06-26T05:18:18;9.02;;;5.25;;
78895;SDS011;68284;59.124;37.910;2023-06-26T05:20:45;12.02;;;6.57;;
78895;SDS011;68284;59.124;37.910;2023-06-26T05:23:11;8.32;;;5.90;;
78895;SDS011;68284;59.124;37.910;2023-06-26T05:25:38;10.02;;;6.10;;
78895;SDS011;68284;59.124;37.910;2023-06-26T05:28:05;11.02;;;6.03;;
78895;SDS011;68284;59.124;37.910;2023-06-26T05:30:34;10.38;;;5.93;;
78895;SDS011;68284;59.124;37.910;2023-06-26T05:33:01;10.55;;;6.45;;
78895;SDS011;68284;59.124;37.910;2023-06-26T05:35:30;8.95;;;5.88;;
78895;SDS011;68284;59.124;37.910;2023-06-26T05:37:57;11.63;;;6.05;;
78895;SDS011;68284;59.124;37.910;2023-06-26T05:40:24;12.48;;;5.93;;
78895;SDS011;68284;59.124;37.910;2023-06-26T05:42:51;10.15;;;6.18;;
78895;SDS011;68284;59.124;37.910;2023-06-26T05:45:17;12.65;;;6.57;;
78895;SDS011;68284;59.124;37.910;2023-06-26T05:47:44;11.63;;;6.18;;
78895;SDS011;68284;59.124;37.910;2023-06-26T05:50:10;8.40;;;6.00;;
78895;SDS011;68284;59.124;37.910;2023-06-26T05:52:37;13.80;;;6.18;;
78895;SDS011;68284;59.124;37.910;2023-06-26T05:55:04;6.47;;;5.78;;
78895;SDS011;68284;59.124;37.910;2023-06-26T05:57:31;10.45;;;5.32;;
78895;SDS011;68284;59.124;37.910;2023-06-26T05:59:57;11.05;;;5.35;;
78895;SDS011;68284;59.124;37.910;2023-06-26T06:02:24;10.63;;;6.05;;
78895;SDS011;68284;59.124;37.910;2023-06-26T06:04:51;8.05;;;4.72;;
78895;SDS011;68284;59.124;37.910;2023-06-26T06:07:18;9.90;;;5.72;;
78895;SDS011;68284;59.124;37.910;2023-06-26T06:09:44;9.25;;;5.50;;
78895;SDS011;68284;59.124;37.910;2023-06-26T06:12:11;10.38;;;5.65;;
78895;SDS011;68284;59.124;37.910;2023-06-26T06:14:38;10.23;;;5.18;;
78895;SDS011;68284;59.124;37.910;2023-06-26T06:17:04;10.30;;;5.47;;
78895;SDS011;68284;59.124;37.910;2023-06-26T06:19:31;10.13;;;6.80;;
78895;SDS011;68284;59.124;37.910;2023-06-26T06:21:58;9.57;;;5.40;;
78895;SDS011;68284;59.124;37.910;2023-06-26T06:24:24;8.55;;;5.10;;
78895;SDS011;68284;59.124;37.910;2023-06-26T06:26:50;8.93;;;4.75;;
78895;SDS011;68284;59.124;37.910;2023-06-26T06:29:17;9.80;;;5.70;;
78895;SDS011;68284;59.124;37.910;2023-06-26T06:31:44;17.17;;;5.70;;
78895;SDS011;68284;59.124;37.910;2023-06-26T06:34:12;8.38;;;5.60;;
78895;SDS011;68284;59.124;37.910;2023-06-26T06:36:39;9.45;;;5.88;;
78895;SDS011;68284;59.124;37.910;2023-06-26T06:39:05;6.55;;;5.65;;
78895;SDS011;68284;59.124;37.910;2023-06-26T06:41:34;10.00;;;5.45;;
78895;SDS011;68284;59.124;37.910;2023-06-26T06:44:05;16.02;;;5.68;;
78895;SDS011;68284;59.124;37.910;2023-06-26T06:46:31;11.90;;;5.15;;
78895;SDS011;68284;59.124;37.910;2023-06-26T06:48:57;13.48;;;5.68;;
78895;SDS011;68284;59.124;37.910;2023-06-26T06:51:23;10.18;;;5.47;;
78895;SDS011;68284;59.124;37.910;2023-06-26T06:53:50;7.00;;;5.05;;
78895;SDS011;68284;59.124;37.910;2023-06-26T06:56:16;10.60;;;5.20;;
78895;SDS011;68284;59.124;37.910;2023-06-26T06:58:42;6.15;;;4.60;;
78895;SDS011;68284;59.124;37.910;2023-06-26T07:01:09;5.63;;;4.55;;
78895;SDS011;68284;59.124;37.910;2023-06-26T07:03:36;5.35;;;4.18;;
78895;SDS011;68284;59.124;37.910;2023-06-26T07:06:02;7.22;;;4.88;;
78895;SDS011;68284;59.124;37.910;2023-06-26T07:08:29;5.85;;;4.68;;
78895;SDS011;68284;59.124;37.910;2023-06-26T07:10:58;7.32;;;3.75;;
78895;SDS011;68284;59.124;37.910;2023-06-26T07:13:24;6.03;;;3.53;;
78895;SDS011;68284;59.124;37.910;2023-06-26T07:15:51;5.72;;;3.78;;
78895;SDS011;68284;59.124;37.910;2023-06-26T07:18:17;5.72;;;4.43;;
78895;SDS011;68284;59.124;37.910;2023-06-26T07:20:43;5.53;;;3.88;;
78895;SDS011;68284;59.124;37.910;2023-06-26T07:23:11;7.10;;;4.38;;
78895;SDS011;68284;59.124;37.910;2023-06-26T07:25:37;4.72;;;3.33;;
78895;SDS011;68284;59.124;37.910;2023-06-26T07:28:05;5.13;;;3.97;;
78895;SDS011;68284;59.124;37.910;2023-06-26T07:30:36;10.32;;;4.22;;
78895;SDS011;68284;59.124;37.910;2023-06-26T07:33:03;7.97;;;3.67;;
78895;SDS011;68284;59.124;37.910;2023-06-26T07:35:30;6.57;;;3.53;;
78895;SDS011;68284;59.124;37.910;2023-06-26T07:37:56;5.07;;;3.22;;
78895;SDS011;68284;59.124;37.910;2023-06-26T07:40:22;4.70;;;3.53;;
78895;SDS011;68284;59.124;37.910;2023-06-26T07:42:48;3.05;;;2.75;;
78895;SDS011;68284;59.124;37.910;2023-06-26T07:45:15;7.45;;;3.30;;
78895;SDS011;68284;59.124;37.910;2023-06-26T07:47:43;6.13;;;3.42;;
78895;SDS011;68284;59.124;37.910;2023-06-26T07:50:13;3.20;;;2.65;;
78895;SDS011;68284;59.124;37.910;2023-06-26T07:52:45;3.85;;;3.17;;
78895;SDS011;68284;59.124;37.910;2023-06-26T07:55:11;3.10;;;2.67;;
78895;SDS011;68284;59.124;37.910;2023-06-26T07:57:39;4.88;;;2.60;;
78895;SDS011;68284;59.124;37.910;2023-06-26T08:00:05;6.72;;;2.78;;
78895;SDS011;68284;59.124;37.910;2023-06-26T08:02:43;5.38;;;2.60;;
78895;SDS011;68284;59.124;37.910;2023-06-26T08:05:13;6.68;;;3.00;;
78895;SDS011;68284;59.124;37.910;2023-06-26T08:07:39;4.38;;;2.72;;
78895;SDS011;68284;59.124;37.910;2023-06-26T08:10:05;4.82;;;2.72;;
78895;SDS011;68284;59.124;37.910;2023-06-26T08:12:32;3.58;;;2.70;;
78895;SDS011;68284;59.124;37.910;2023-06-26T08:14:58;5.72;;;2.83;;
78895;SDS011;68284;59.124;37.910;2023-06-26T08:17:26;4.78;;;2.97;;
78895;SDS011;68284;59.124;37.910;2023-06-26T08:19:52;4.68;;;2.65;;
78895;SDS011;68284;59.124;37.910;2023-06-26T08:22:18;8.95;;;2.33;;
78895;SDS011;68284;59.124;37.910;2023-06-26T08:24:44;3.75;;;2.45;;
78895;SDS011;68284;59.124;37.910;2023-06-26T08:27:11;3.35;;;2.67;;
78895;SDS011;68284;59.124;37.910;2023-06-26T08:29:38;4.25;;;2.45;;
78895;SDS011;68284;59.124;37.910;2023-06-26T08:32:05;5.43;;;2.70;;
78895;SDS011;68284;59.124;37.910;2023-06-26T08:34:33;3.80;;;2.03;;
78895;SDS011;68284;59.124;37.910;2023-06-26T08:37:03;4.13;;;2.22;;
78895;SDS011;68284;59.124;37.910;2023-06-26T08:39:30;3.65;;;2.40;;
78895;SDS011;68284;59.124;37.910;2023-06-26T08:41:56;2.92;;;2.72;;
78895;SDS011;68284;59.124;37.910;2023-06-26T08:44:22;3.72;;;2.40;;
78895;SDS011;68284;59.124;37.910;2023-06-26T08:46:50;6.60;;;2.95;;
78895;SDS011;68284;59.124;37.910;2023-06-26T08:49:23;3.83;;;2.45;;
78895;SDS011;68284;59.124;37.910;2023-06-26T08:52:02;4.18;;;2.50;;
78895;SDS011;68284;59.124;37.910;2023-06-26T08:54:36;4.75;;;2.80;;
78895;SDS011;68284;59.124;37.910;2023-06-26T08:57:11;2.70;;;2.05;;
78895;SDS011;68284;59.124;37.910;2023-06-26T08:59:39;7.15;;;2.80;;
78895;SDS011;68284;59.124;37.910;2023-06-26T09:02:05;3.00;;;2.53;;
78895;SDS011;68284;59.124;37.910;2023-06-26T09:04:32;5.93;;;3.13;;
78895;SDS011;68284;59.124;37.910;2023-06-26T09:07:01;3.75;;;2.63;;
78895;SDS011;68284;59.124;37.910;2023-06-26T09:09:30;5.55;;;2.58;;
78895;SDS011;68284;59.124;37.910;2023-06-26T09:11:58;4.13;;;2.63;;
78895;SDS011;68284;59.124;37.910;2023-06-26T09:14:29;3.00;;;2.22;;
78895;SDS011;68284;59.124;37.910;2023-06-26T09:16:58;4.53;;;3.50;;
78895;SDS011;68284;59.124;37.910;2023-06-26T09:19:26;3.38;;;2.90;;
78895;SDS011;68284;59.124;37.910;2023-06-26T09:21:52;5.20;;;2.53;;
78895;SDS011;68284;59.124;37.910;2023-06-26T09:24:20;3.20;;;2.90;;
78895;SDS011;68284;59.124;37.910;2023-06-26T09:26:48;4.50;;;2.85;;
78895;SDS011;68284;59.124;37.910;2023-06-26T09:29:17;4.57;;;2.58;;
78895;SDS011;68284;59.124;37.910;2023-06-26T09:31:43;9.35;;;3.47;;
78895;SDS011;68284;59.124;37.910;2023-06-26T09:34:10;4.90;;;2.65;;
78895;SDS011;68284;59.124;37.910;2023-06-26T09:36:36;5.95;;;3.22;;
78895;SDS011;68284;59.124;37.910;2023-06-26T09:39:03;2.50;;;2.13;;
78895;SDS011;68284;59.124;37.910;2023-06-26T09:41:37;3.00;;;2.70;;
78895;SDS011;68284;59.124;37.910;2023-06-26T09:44:06;4.70;;;2.53;;
78895;SDS011;68284;59.124;37.910;2023-06-26T09:46:33;3.22;;;2.92;;
78895;SDS011;68284;59.124;37.910;2023-06-26T09:49:08;5.60;;;2.90;;
78895;SDS011;68284;59.124;37.910;2023-06-26T09:54:06;3.63;;;2.65;;
78895;SDS011;68284;59.124;37.910;2023-06-26T09:56:33;3.80;;;2.50;;
78895;SDS011;68284;59.124;37.910;2023-06-26T09:59:03;4.82;;;2.83;;
78895;SDS011;68284;59.124;37.910;2023-06-26T10:01:32;2.45;;;2.25;;
78895;SDS011;68284;59.124;37.910;2023-06-26T10:04:00;4.40;;;2.70;;
78895;SDS011;68284;59.124;37.910;2023-06-26T10:06:36;4.63;;;2.55;;
78895;SDS011;68284;59.124;37.910;2023-06-26T10:09:04;5.68;;;2.65;;
78895;SDS011;68284;59.124;37.910;2023-06-26T10:11:41;2.83;;;2.47;;
78895;SDS011;68284;59.124;37.910;2023-06-26T10:14:13;2.95;;;2.40;;
78895;SDS011;68284;59.124;37.910;2023-06-26T10:16:40;4.82;;;2.80;;
78895;SDS011;68284;59.124;37.910;2023-06-26T10:19:09;7.25;;;2.67;;
78895;SDS011;68284;59.124;37.910;2023-06-26T10:21:37;2.83;;;2.58;;
78895;SDS011;68284;59.124;37.910;2023-06-26T10:24:07;4.15;;;2.40;;
78895;SDS011;68284;59.124;37.910;2023-06-26T10:26:41;4.57;;;2.83;;
78895;SDS011;68284;59.124;37.910;2023-06-26T10:29:12;2.72;;;2.50;;
78895;SDS011;68284;59.124;37.910;2023-06-26T10:31:43;4.50;;;2.35;;
78895;SDS011;68284;59.124;37.910;2023-06-26T10:34:13;4.75;;;2.90;;
78895;SDS011;68284;59.124;37.910;2023-06-26T10:36:43;3.92;;;2.65;;
78895;SDS011;68284;59.124;37.910;2023-06-26T10:39:10;6.00;;;2.72;;
78895;SDS011;68284;59.124;37.910;2023-06-26T10:41:37;2.53;;;2.30;;
78895;SDS011;68284;59.124;37.910;2023-06-26T10:44:11;3.00;;;2.70;;
78895;SDS011;68284;59.124;37.910;2023-06-26T10:46:55;5.05;;;2.53;;
78895;SDS011;68284;59.124;37.910;2023-06-26T10:49:30;3.10;;;2.80;;
78895;SDS011;68284;59.124;37.910;2023-06-26T10:51:56;5.68;;;2.83;;
78895;SDS011;68284;59.124;37.910;2023-06-26T10:54:31;4.50;;;2.88;;
78895;SDS011;68284;59.124;37.910;2023-06-26T10:56:59;3.20;;;2.72;;
78895;SDS011;68284;59.124;37.910;2023-06-26T10:59:27;2.70;;;2.47;;
78895;SDS011;68284;59.124;37.910;2023-06-26T11:02:04;5.78;;;2.60;;
78895;SDS011;68284;59.124;37.910;2023-06-26T11:04:40;4.22;;;2.40;;
78895;SDS011;68284;59.124;37.910;2023-06-26T11:09:57;4.38;;;2.70;;
78895;SDS011;68284;59.124;37.910;2023-06-26T11:12:35;5.07;;;2.65;;
78895;SDS011;68284;59.124;37.910;2023-06-26T11:15:08;5.35;;;2.83;;
78895;SDS011;68284;59.124;37.910;2023-06-26T11:17:47;10.63;;;2.83;;
78895;SDS011;68284;59.124;37.910;2023-06-26T11:20:15;3.35;;;2.30;;
78895;SDS011;68284;59.124;37.910;2023-06-26T11:22:43;2.63;;;2.42;;
78895;SDS011;68284;59.124;37.910;2023-06-26T11:25:10;3.38;;;2.17;;
78895;SDS011;68284;59.124;37.910;2023-06-26T11:27:43;2.55;;;2.15;;
78895;SDS011;68284;59.124;37.910;2023-06-26T11:30:10;2.70;;;2.28;;
78895;SDS011;68284;59.124;37.910;2023-06-26T11:35:21;2.80;;;2.30;;
78895;SDS011;68284;59.124;37.910;2023-06-26T11:37:59;4.95;;;2.03;;
78895;SDS011;68284;59.124;37.910;2023-06-26T11:40:30;3.00;;;1.95;;
78895;SDS011;68284;59.124;37.910;2023-06-26T11:42:58;2.78;;;2.50;;
78895;SDS011;68284;59.124;37.910;2023-06-26T11:45:27;2.72;;;2.05;;
78895;SDS011;68284;59.124;37.910;2023-06-26T11:48:02;4.78;;;2.22;;
78895;SDS011;68284;59.124;37.910;2023-06-26T11:50:28;3.53;;;2.20;;
78895;SDS011;68284;59.124;37.910;2023-06-26T11:52:56;2.97;;;2.63;;
78895;SDS011;68284;59.124;37.910;2023-06-26T11:55:23;7.25;;;2.42;;
78895;SDS011;68284;59.124;37.910;2023-06-26T13:16:00;5.28;;;2.58;;
78895;SDS011;68284;59.124;37.910;2023-06-26T13:18:28;4.45;;;2.22;;
78895;SDS011;68284;59.124;37.910;2023-06-26T13:20:54;3.00;;;2.45;;
78895;SDS011;68284;59.124;37.910;2023-06-26T13:23:27;7.40;;;2.47;;
78895;SDS011;68284;59.124;37.910;2023-06-26T13:25:53;2.35;;;2.15;;
78895;SDS011;68284;59.124;37.910;2023-06-26T13:28:20;9.05;;;2.78;;
78895;SDS011;68284;59.124;37.910;2023-06-26T13:30:47;6.22;;;2.22;;
78895;SDS011;68284;59.124;37.910;2023-06-26T13:33:13;2.03;;;1.83;;
78895;SDS011;68284;59.124;37.910;2023-06-26T13:35:39;3.45;;;1.92;;
78895;SDS011;68284;59.124;37.910;2023-06-26T13:38:06;3.05;;;2.38;;
78895;SDS011;68284;59.124;37.910;2023-06-26T13:40:32;3.70;;;2.20;;
78895;SDS011;68284;59.124;37.910;2023-06-26T13:43:00;8.68;;;2.78;;
78895;SDS011;68284;59.124;37.910;2023-06-26T13:45:29;9.60;;;2.72;;
78895;SDS011;68284;59.124;37.910;2023-06-26T13:47:55;3.95;;;2.33;;
78895;SDS011;68284;59.124;37.910;2023-06-26T13:50:21;5.53;;;2.40;;
78895;SDS011;68284;59.124;37.910;2023-06-26T13:52:49;5.65;;;2.22;;
78895;SDS011;68284;59.124;37.910;2023-06-26T13:55:22;5.53;;;3.17;;
78895;SDS011;68284;59.124;37.910;2023-06-26T13:57:49;2.92;;;2.17;;
78895;SDS011;68284;59.124;37.910;2023-06-26T14:00:16;4.80;;;2.40;;
78895;SDS011;68284;59.124;37.910;2023-06-26T14:05:15;4.25;;;2.03;;
78895;SDS011;68284;59.124;37.910;2023-06-26T14:07:44;4.18;;;2.20;;
78895;SDS011;68284;59.124;37.910;2023-06-26T14:10:11;3.38;;;2.00;;
78895;SDS011;68284;59.124;37.910;2023-06-26T14:12:37;8.57;;;2.53;;
78895;SDS011;68284;59.124;37.910;2023-06-26T14:15:05;6.38;;;2.45;;
78895;SDS011;68284;59.124;37.910;2023-06-26T14:17:32;4.20;;;1.85;;
78895;SDS011;68284;59.124;37.910;2023-06-26T14:19:59;9.45;;;2.40;;
78895;SDS011;68284;59.124;37.910;2023-06-26T14:22:28;6.60;;;2.40;;
78895;SDS011;68284;59.124;37.910;2023-06-26T14:24:54;3.80;;;2.45;;
78895;SDS011;68284;59.124;37.910;2023-06-26T14:27:21;3.17;;;2.17;;
78895;SDS011;68284;59.124;37.910;2023-06-26T14:29:48;2.67;;;2.35;;
78895;SDS011;68284;59.124;37.910;2023-06-26T14:32:14;3.67;;;2.42;;
78895;SDS011;68284;59.124;37.910;2023-06-26T14:34:41;9.15;;;2.65;;
78895;SDS011;68284;59.124;37.910;2023-06-26T14:37:07;5.80;;;2.85;;
78895;SDS011;68284;59.124;37.910;2023-06-26T14:39:34;4.93;;;3.13;;
78895;SDS011;68284;59.124;37.910;2023-06-26T14:42:00;6.32;;;2.30;;
78895;SDS011;68284;59.124;37.910;2023-06-26T14:44:27;4.63;;;3.17;;
78895;SDS011;68284;59.124;37.910;2023-06-26T14:46:54;4.13;;;2.35;;
78895;SDS011;68284;59.124;37.910;2023-06-26T14:49:21;3.13;;;2.33;;
78895;SDS011;68284;59.124;37.910;2023-06-26T14:55:42;4.70;;;2.88;;
78895;SDS011;68284;59.124;37.910;2023-06-26T14:58:08;8.18;;;3.67;;
78895;SDS011;68284;59.124;37.910;2023-06-26T15:00:34;8.82;;;3.13;;
78895;SDS011;68284;59.124;37.910;2023-06-26T15:03:01;5.68;;;2.97;;
78895;SDS011;68284;59.124;37.910;2023-06-26T15:05:27;8.10;;;4.05;;
78895;SDS011;68284;59.124;37.910;2023-06-26T15:07:53;3.55;;;3.25;;
78895;SDS011;68284;59.124;37.910;2023-06-26T15:10:19;5.05;;;2.47;;
78895;SDS011;68284;59.124;37.910;2023-06-26T15:12:47;3.92;;;2.88;;
78895;SDS011;68284;59.124;37.910;2023-06-26T15:15:13;5.65;;;2.88;;
78895;SDS011;68284;59.124;37.910;2023-06-26T15:17:39;4.47;;;2.70;;
78895;SDS011;68284;59.124;37.910;2023-06-26T15:20:06;3.00;;;2.47;;
78895;SDS011;68284;59.124;37.910;2023-06-26T15:22:32;3.55;;;2.45;;
78895;SDS011;68284;59.124;37.910;2023-06-26T15:24:58;5.18;;;2.80;;
78895;SDS011;68284;59.124;37.910;2023-06-26T15:27:25;5.70;;;2.83;;
78895;SDS011;68284;59.124;37.910;2023-06-26T15:29:51;4.82;;;2.80;;
78895;SDS011;68284;59.124;37.910;2023-06-26T15:32:17;3.28;;;2.97;;
78895;SDS011;68284;59.124;37.910;2023-06-26T15:34:43;4.97;;;2.25;;
78895;SDS011;68284;59.124;37.910;2023-06-26T15:37:10;3.42;;;2.90;;
78895;SDS011;68284;59.124;37.910;2023-06-26T15:39:36;6.82;;;3.03;;
78895;SDS011;68284;59.124;37.910;2023-06-26T15:42:05;4.13;;;2.60;;
78895;SDS011;68284;59.124;37.910;2023-06-26T15:44:31;4.65;;;2.90;;
78895;SDS011;68284;59.124;37.910;2023-06-26T15:47:00;4.90;;;2.90;;
78895;SDS011;68284;59.124;37.910;2023-06-26T15:49:27;7.30;;;3.30;;
78895;SDS011;68284;59.124;37.910;2023-06-26T15:51:53;2.90;;;2.50;;
78895;SDS011;68284;59.124;37.910;2023-06-26T15:54:20;5.07;;;2.92;;
78895;SDS011;68284;59.124;37.910;2023-06-26T15:56:46;5.97;;;2.72;;
78895;SDS011;68284;59.124;37.910;2023-06-26T15:59:12;6.55;;;2.35;;
78895;SDS011;68284;59.124;37.910;2023-06-26T16:01:41;4.03;;;2.47;;
78895;SDS011;68284;59.124;37.910;2023-06-26T16:04:08;5.65;;;2.38;;
78895;SDS011;68284;59.124;37.910;2023-06-26T16:06:35;7.38;;;2.38;;
78895;SDS011;68284;59.124;37.910;2023-06-26T16:09:01;4.97;;;2.70;;
78895;SDS011;68284;59.124;37.910;2023-06-26T16:11:27;3.60;;;2.47;;
78895;SDS011;68284;59.124;37.910;2023-06-26T16:13:54;5.50;;;2.63;;
78895;SDS011;68284;59.124;37.910;2023-06-26T16:16:20;10.25;;;2.67;;
78895;SDS011;68284;59.124;37.910;2023-06-26T16:18:47;5.60;;;2.58;;
78895;SDS011;68284;59.124;37.910;2023-06-26T16:21:13;4.85;;;2.53;;
78895;SDS011;68284;59.124;37.910;2023-06-26T16:23:40;4.85;;;2.35;;
78895;SDS011;68284;59.124;37.910;2023-06-26T16:26:06;5.82;;;2.97;;
78895;SDS011;68284;59.124;37.910;2023-06-26T16:28:32;6.53;;;2.83;;
78895;SDS011;68284;59.124;37.910;2023-06-26T16:30:58;6.43;;;3.15;;
78895;SDS011;68284;59.124;37.910;2023-06-26T16:33:24;4.40;;;2.42;;
78895;SDS011;68284;59.124;37.910;2023-06-26T16:35:51;4.38;;;2.70;;
78895;SDS011;68284;59.124;37.910;2023-06-26T16:38:17;5.50;;;2.33;;
78895;SDS011;68284;59.124;37.910;2023-06-26T16:40:43;5.03;;;2.42;;